createdAt,value
2023-01-17T00:02:19.084Z,79.06
2023-01-17T00:05:04.817Z,80.34
2023-01-17T00:07:50.051Z,80.81
2023-01-17T00:10:21.782Z,80.96
2023-01-17T00:12:53.576Z,82.04
2023-01-17T00:15:23.240Z,82.83
2023-01-17T00:17:50.389Z,82.98
2023-01-17T00:20:37.937Z,82.50
2023-01-17T00:23:29.912Z,83.09
2023-01-17T00:26:02.961Z,83.11
2023-01-17T00:28:37.520Z,82.88
2023-01-17T00:31:06.263Z,82.52
2023-01-17T00:33:32.981Z,81.60
2023-01-17T00:36:01.723Z,82.24
2023-01-17T00:38:31.926Z,82.17
2023-01-17T00:41:03.159Z,82.94
2023-01-17T00:43:49.099Z,83.14
2023-01-17T00:46:34.994Z,81.97
2023-01-17T00:49:20.439Z,81.50
2023-01-17T00:52:05.647Z,80.98
2023-01-17T00:54:50.753Z,81.89
2023-01-17T00:57:35.907Z,80.58
2023-01-17T01:00:20.957Z,78.01
2023-01-17T01:03:06.272Z,79.25
2023-01-17T01:05:51.506Z,79.67
2023-01-17T01:08:45.799Z,80.09
2023-01-17T01:11:37.097Z,79.51
2023-01-17T01:14:22.870Z,79.08
2023-01-17T01:17:08.300Z,78.51
2023-01-17T01:19:53.503Z,78.33
2023-01-17T01:22:38.625Z,79.08
2023-01-17T01:25:24.384Z,79.25
2023-01-17T01:28:09.621Z,80.31
2023-01-17T01:30:54.769Z,79.38
2023-01-17T01:33:21.275Z,77.82
2023-01-17T01:35:53.846Z,78.69
2023-01-17T01:38:23.284Z,79.27
2023-01-17T01:40:52.727Z,79.05
2023-01-17T01:43:39.033Z,80.06
2023-01-17T01:46:06.690Z,79.38
2023-01-17T01:48:41.962Z,78.52
2023-01-17T01:51:12.198Z,78.45
2023-01-17T01:53:42.773Z,79.24
2023-01-17T01:56:14.070Z,80.31
2023-01-17T01:58:44.108Z,79.93
2023-01-17T02:01:10.842Z,79.94
2023-01-17T02:03:40.788Z,79.88
2023-01-17T02:06:34.187Z,79.10
2023-01-17T02:09:06.419Z,78.72
2023-01-17T02:11:34.707Z,77.41
2023-01-17T02:14:01.596Z,78.72
2023-01-17T02:16:54.564Z,80.70
2023-01-17T02:19:40.795Z,78.49
2023-01-17T02:22:34.163Z,79.06
2023-01-17T02:25:31.391Z,78.95
2023-01-17T02:28:16.262Z,79.55
2023-01-17T02:30:48.189Z,80.43
2023-01-17T02:33:37.867Z,79.23
2023-01-17T02:36:19.446Z,80.23
2023-01-17T02:39:09.918Z,79.73
2023-01-17T02:41:40.607Z,81.19
2023-01-17T02:44:15.331Z,81.58
2023-01-17T02:46:50.388Z,82.54
2023-01-17T02:49:19.277Z,84.12
2023-01-17T02:52:10.863Z,84.01
2023-01-17T02:55:03.574Z,84.87
2023-01-17T02:57:49.392Z,82.56
2023-01-17T03:00:27.743Z,82.64
2023-01-17T03:03:32.061Z,82.17
2023-01-17T03:06:12.231Z,81.91
2023-01-17T03:08:45.875Z,81.14
2023-01-17T03:11:13.792Z,81.84
2023-01-17T03:13:41.213Z,81.72
2023-01-17T03:16:34.160Z,80.43
2023-01-17T03:19:01.230Z,79.52
2023-01-17T03:21:27.725Z,80.92
2023-01-17T03:23:54.452Z,80.13
2023-01-17T03:26:21.152Z,80.26
2023-01-17T03:28:47.693Z,80.53
2023-01-17T03:31:15.976Z,81.59
2023-01-17T03:33:42.602Z,81.12
2023-01-17T03:36:09.592Z,82.34
2023-01-17T03:38:37.383Z,82.47
2023-01-17T03:41:04.634Z,82.55
2023-01-17T03:43:34.037Z,82.41
2023-01-17T03:46:17.123Z,82.06
2023-01-17T03:48:43.659Z,82.58
2023-01-17T03:51:10.194Z,82.24
2023-01-17T03:53:36.724Z,82.16
2023-01-17T03:56:04.619Z,81.03
2023-01-17T03:58:31.486Z,80.93
2023-01-17T04:00:58.059Z,81.20
2023-01-17T04:03:24.667Z,80.26
2023-01-17T04:05:53.296Z,78.64
2023-01-17T04:08:20.865Z,78.63
2023-01-17T04:10:48.633Z,77.79
2023-01-17T04:13:16.783Z,79.05
2023-01-17T04:15:48.404Z,78.14
2023-01-17T04:18:17.447Z,78.12
2023-01-17T04:20:44.208Z,78.84
2023-01-17T04:23:11.278Z,78.15
2023-01-17T04:25:37.880Z,78.25
2023-01-17T04:28:05.262Z,78.35
2023-01-17T04:30:32.749Z,77.98
2023-01-17T04:33:00.291Z,76.64
2023-01-17T04:35:28.923Z,77.72
2023-01-17T04:37:55.497Z,77.81
2023-01-17T04:40:22.364Z,76.84
2023-01-17T04:42:48.907Z,77.16
2023-01-17T04:45:15.751Z,77.20
2023-01-17T04:47:42.224Z,77.05
2023-01-17T04:50:10.050Z,77.81
2023-01-17T04:52:36.640Z,76.25
2023-01-17T04:55:03.399Z,75.23
2023-01-17T04:57:30.116Z,75.46
2023-01-17T04:59:56.633Z,75.79
2023-01-17T05:02:23.165Z,76.71
2023-01-17T05:04:49.664Z,76.83
2023-01-17T05:07:16.237Z,76.96
2023-01-17T05:09:43.837Z,76.87
2023-01-17T05:12:10.896Z,77.16
2023-01-17T05:14:37.442Z,76.19
2023-01-17T05:17:04.283Z,76.92
2023-01-17T05:19:30.873Z,75.81
2023-01-17T05:22:03.901Z,76.32
2023-01-17T05:24:31.527Z,76.23
2023-01-17T05:27:03.073Z,77.03
2023-01-17T05:29:30.515Z,77.04
2023-01-17T05:31:57.381Z,77.42
2023-01-17T05:34:24.068Z,77.59
2023-01-17T05:36:51.010Z,76.72
2023-01-17T05:39:17.771Z,76.47
2023-01-17T05:41:44.742Z,75.84
2023-01-17T05:44:11.567Z,77.33
2023-01-17T05:46:38.432Z,78.01
2023-01-17T05:49:05.384Z,78.12
2023-01-17T05:51:33.271Z,78.94
2023-01-17T05:53:59.786Z,79.65
2023-01-17T05:56:26.406Z,80.03
2023-01-17T05:58:52.908Z,80.26
2023-01-17T06:01:20.388Z,79.94
2023-01-17T06:03:46.915Z,79.23
2023-01-17T06:06:13.514Z,79.59
2023-01-17T06:08:40.076Z,80.50
2023-01-17T06:11:06.653Z,80.50
2023-01-17T06:13:34.184Z,80.87
2023-01-17T06:16:04.436Z,81.86
2023-01-17T06:18:31.898Z,81.20
2023-01-17T06:20:58.710Z,81.27
2023-01-17T06:23:25.762Z,81.33
2023-01-17T06:25:52.884Z,81.89
2023-01-17T06:28:22.659Z,81.85
2023-01-17T06:30:50.664Z,82.09
2023-01-17T06:33:17.573Z,82.41
2023-01-17T06:35:51.956Z,82.51
2023-01-17T06:38:21.867Z,82.80
2023-01-17T06:40:49.264Z,82.90
2023-01-17T06:43:15.956Z,83.29
2023-01-17T06:45:42.464Z,83.23
2023-01-17T06:48:08.972Z,83.34
2023-01-17T06:50:35.538Z,83.38
2023-01-17T06:53:05.099Z,83.18
2023-01-17T06:55:33.801Z,84.11
2023-01-17T06:58:02.801Z,83.54
2023-01-17T07:00:31.355Z,84.47
2023-01-17T07:02:58.070Z,83.68
2023-01-17T07:05:24.979Z,83.87
2023-01-17T07:07:51.584Z,84.38
2023-01-17T07:10:18.162Z,84.76
2023-01-17T07:12:44.683Z,84.56
2023-01-17T07:15:11.896Z,84.71
2023-01-17T07:17:38.918Z,84.56
2023-01-17T07:20:06.392Z,84.38
2023-01-17T07:22:32.884Z,84.06
2023-01-17T07:24:59.712Z,84.19
2023-01-17T07:27:27.767Z,84.21
2023-01-17T07:29:54.470Z,83.84
2023-01-17T07:32:21.076Z,83.71
2023-01-17T07:34:47.553Z,83.28
2023-01-17T07:37:15.349Z,84.53
2023-01-17T07:39:42.157Z,84.57
2023-01-17T07:42:09.127Z,84.36
2023-01-17T07:44:35.594Z,84.52
2023-01-17T07:47:01.939Z,84.27
2023-01-17T07:49:28.406Z,83.41
2023-01-17T07:51:55.507Z,84.39
2023-01-17T07:54:22.080Z,83.78
2023-01-17T07:56:48.996Z,83.69
2023-01-17T07:59:15.605Z,83.82
2023-01-17T08:01:42.249Z,83.51
2023-01-17T08:04:09.413Z,83.56
2023-01-17T08:06:39.385Z,83.26
2023-01-17T08:09:05.848Z,82.64
2023-01-17T08:11:32.322Z,81.99
2023-01-17T08:13:59.767Z,83.07
2023-01-17T08:16:28.718Z,82.24
2023-01-17T08:18:56.375Z,83.30
2023-01-17T08:21:24.376Z,83.65
2023-01-17T08:23:51.997Z,82.84
2023-01-17T08:26:23.351Z,82.55
2023-01-17T08:28:58.159Z,83.32
2023-01-17T08:31:24.815Z,83.19
2023-01-17T08:33:51.340Z,82.92
2023-01-17T08:36:17.772Z,81.97
2023-01-17T08:38:44.473Z,82.66
2023-01-17T08:41:11.155Z,82.46
2023-01-17T08:43:37.665Z,82.31
2023-01-17T08:46:06.140Z,82.22
2023-01-17T08:48:32.672Z,82.44
2023-01-17T08:51:02.674Z,82.73
2023-01-17T08:53:29.227Z,83.19
2023-01-17T08:56:00.557Z,83.74
2023-01-17T08:58:30.583Z,83.29
2023-01-17T09:01:05.136Z,83.12
2023-01-17T09:03:32.761Z,82.92
2023-01-17T09:06:10.369Z,82.51
2023-01-17T09:08:37.211Z,82.23
2023-01-17T09:11:11.632Z,82.29
2023-01-17T09:13:38.812Z,81.47
2023-01-17T09:16:06.885Z,82.25
2023-01-17T09:18:34.401Z,82.29
2023-01-17T09:21:10.265Z,82.50
2023-01-17T09:23:36.868Z,82.50
2023-01-17T09:26:03.320Z,82.28
2023-01-17T09:28:29.707Z,82.71
2023-01-17T09:30:56.207Z,81.72
2023-01-17T09:33:25.661Z,80.94
2023-01-17T09:35:52.222Z,80.97
2023-01-17T09:38:18.780Z,81.20
2023-01-17T09:40:48.294Z,79.95
2023-01-17T09:43:40.921Z,80.57
2023-01-17T09:46:22.299Z,80.45
2023-01-17T09:48:55.947Z,80.37
2023-01-17T09:51:26.915Z,79.95
2023-01-17T09:53:54.556Z,79.49
2023-01-17T09:56:29.606Z,78.67
2023-01-17T09:59:20.847Z,76.84
2023-01-17T10:01:52.754Z,75.88
2023-01-17T10:04:37.989Z,76.79
2023-01-17T10:07:07.142Z,76.24
2023-01-17T10:09:55.359Z,77.15
2023-01-17T10:12:33.466Z,78.30
2023-01-17T10:15:22.028Z,78.08
2023-01-17T10:18:03.632Z,77.95
2023-01-17T10:20:49.539Z,78.05
2023-01-17T10:23:41.705Z,77.49
2023-01-17T10:26:15.191Z,77.98
2023-01-17T10:28:47.110Z,78.42
2023-01-17T10:31:35.531Z,78.62
2023-01-17T10:34:10.749Z,78.08
2023-01-17T10:36:44.882Z,76.78
2023-01-17T10:39:25.918Z,77.12
2023-01-17T10:41:55.494Z,77.09
2023-01-17T10:44:32.318Z,76.57
2023-01-17T10:47:11.069Z,76.27
2023-01-17T10:49:42.357Z,75.34
2023-01-17T10:52:22.789Z,72.79
2023-01-17T10:54:50.029Z,72.13
2023-01-17T10:57:21.477Z,72.02
2023-01-17T10:59:48.576Z,72.04
2023-01-17T11:02:23.846Z,71.72
2023-01-17T11:04:55.800Z,69.45
2023-01-17T11:07:25.294Z,69.20
2023-01-17T11:09:54.468Z,67.25
2023-01-17T11:12:28.260Z,64.63
2023-01-17T11:32:32.569Z,65.34
2023-01-17T11:35:21.776Z,63.90
2023-01-17T11:37:51.228Z,64.73
2023-01-17T11:40:20.539Z,63.24
2023-01-17T11:42:47.081Z,62.92
2023-01-17T11:45:25.576Z,65.04
2023-01-17T11:48:05.380Z,65.04
2023-01-17T11:50:31.991Z,64.05
2023-01-17T11:53:15.259Z,63.98
2023-01-17T11:55:55.856Z,64.05
2023-01-17T11:58:24.221Z,60.05
2023-01-17T12:01:10.771Z,61.40
2023-01-17T12:03:47.435Z,61.09
2023-01-17T12:06:19.707Z,61.35
2023-01-17T12:08:54.105Z,61.47
2023-01-17T12:11:39.394Z,61.45
2023-01-17T12:14:17.049Z,62.98
2023-01-17T12:17:11.545Z,61.21
2023-01-17T12:20:05.098Z,61.23
2023-01-17T12:23:06.128Z,61.77
2023-01-17T12:25:54.536Z,60.33
2023-01-17T12:28:37.180Z,61.10
2023-01-17T12:31:24.539Z,60.98
2023-01-17T12:34:03.464Z,62.02
2023-01-17T12:36:36.226Z,59.65
2023-01-17T12:39:10.119Z,60.45
2023-01-17T12:41:50.947Z,59.51
2023-01-17T12:44:20.041Z,60.11
2023-01-17T12:46:54.679Z,60.10
2023-01-17T12:49:36.432Z,58.47
2023-01-17T12:52:13.806Z,56.49
2023-01-17T12:54:44.805Z,56.53
2023-01-17T12:57:20.312Z,55.62
2023-01-17T13:00:05.001Z,55.21
2023-01-17T13:02:52.665Z,56.08
2023-01-17T13:05:48.814Z,56.71
2023-01-17T13:08:35.902Z,56.84
2023-01-17T13:11:28.286Z,57.16
2023-01-17T13:13:57.551Z,58.12
2023-01-17T13:16:33.995Z,59.24
2023-01-17T13:19:12.821Z,58.29
2023-01-17T13:21:41.133Z,58.23
2023-01-17T13:24:13.592Z,59.38
2023-01-17T13:27:02.195Z,58.34
2023-01-17T13:29:59.084Z,58.84
2023-01-17T13:32:48.569Z,59.95
2023-01-17T13:35:21.385Z,59.68
2023-01-17T13:37:56.763Z,59.60
2023-01-17T13:40:32.918Z,60.43
2023-01-17T13:43:10.996Z,60.43
2023-01-17T13:45:38.174Z,60.01
2023-01-17T13:48:17.159Z,60.16
2023-01-17T13:50:48.100Z,61.18
2023-01-17T13:53:39.391Z,61.03
2023-01-17T13:56:31.791Z,61.16
2023-01-17T13:59:04.954Z,61.42
2023-01-17T14:01:42.985Z,62.84
2023-01-17T14:04:11.625Z,61.63
2023-01-17T14:06:47.781Z,60.49
2023-01-17T14:09:42.244Z,60.10
2023-01-17T14:12:08.744Z,60.08
2023-01-17T14:14:41.507Z,60.08
2023-01-17T14:17:44.196Z,60.20
2023-01-17T14:20:12.409Z,59.24
2023-01-17T14:22:47.450Z,59.91
2023-01-17T14:25:19.174Z,60.72
2023-01-17T14:27:49.091Z,60.66
2023-01-17T14:30:25.065Z,61.18
2023-01-17T14:33:05.936Z,61.76
2023-01-17T14:35:36.283Z,61.40
2023-01-17T14:38:05.615Z,62.07
2023-01-17T14:40:34.131Z,60.99
2023-01-17T14:43:04.307Z,62.04
2023-01-17T14:45:34.563Z,63.29
2023-01-17T14:48:04.317Z,63.55
2023-01-17T14:50:39.875Z,65.10
2023-01-17T14:53:12.612Z,65.50
2023-01-17T14:55:47.957Z,66.20
2023-01-17T14:58:18.548Z,66.82
2023-01-17T15:00:46.783Z,67.24
2023-01-17T15:03:13.649Z,67.68
2023-01-17T15:05:43.073Z,67.93
2023-01-17T15:08:18.390Z,68.81
2023-01-17T15:11:02.944Z,68.94
2023-01-17T15:13:44.274Z,69.97
2023-01-17T15:16:19.176Z,69.71
2023-01-17T15:18:46.302Z,70.24
2023-01-17T15:21:17.245Z,70.82
2023-01-17T15:23:47.301Z,70.27
2023-01-17T15:26:17.944Z,70.65
2023-01-17T15:28:45.589Z,71.29
2023-01-17T15:31:15.801Z,71.11
2023-01-17T15:33:45.575Z,71.50
2023-01-17T15:36:23.925Z,72.12
2023-01-17T15:39:06.270Z,72.38
2023-01-17T15:41:39.569Z,72.03
2023-01-17T15:44:08.075Z,72.73
2023-01-17T15:46:43.194Z,71.75
2023-01-17T15:49:22.245Z,71.68
2023-01-17T15:51:56.247Z,71.79
2023-01-17T15:54:33.690Z,72.38
2023-01-17T15:57:06.673Z,71.75
2023-01-17T15:59:42.706Z,72.21
2023-01-17T16:02:43.558Z,72.80
2023-01-17T16:05:22.883Z,72.61
2023-01-17T16:07:55.964Z,72.10
2023-01-17T16:10:24.877Z,72.10
2023-01-17T16:12:53.791Z,72.47
2023-01-17T16:15:22.115Z,72.75
2023-01-17T16:17:51.508Z,72.98
2023-01-17T16:20:30.035Z,72.48
2023-01-17T16:22:56.663Z,72.61
2023-01-17T16:25:24.404Z,72.46
2023-01-17T16:27:52.128Z,73.61
2023-01-17T16:30:21.661Z,73.28
2023-01-17T16:32:49.027Z,73.09
2023-01-17T16:35:20.945Z,73.42
2023-01-17T16:38:04.882Z,73.15
2023-01-17T16:40:38.444Z,73.39
2023-01-17T16:43:05.038Z,74.52
2023-01-17T16:45:38.973Z,74.21
2023-01-17T16:48:05.888Z,74.29
2023-01-17T16:50:32.624Z,73.99
2023-01-17T16:52:59.135Z,74.61
2023-01-17T16:55:26.453Z,75.17
2023-01-17T16:57:56.225Z,75.19
2023-01-17T17:00:23.152Z,74.76
2023-01-17T17:02:50.907Z,74.62
2023-01-17T17:05:18.361Z,75.65
2023-01-17T17:07:46.211Z,76.07
2023-01-17T17:10:15.538Z,76.50
2023-01-17T17:12:42.469Z,77.05
2023-01-17T17:15:10.575Z,76.86
2023-01-17T17:17:40.971Z,77.03
2023-01-17T17:20:13.603Z,76.36
2023-01-17T17:22:42.964Z,77.09
2023-01-17T17:25:11.191Z,77.36
2023-01-17T17:27:38.244Z,77.72
2023-01-17T17:30:05.168Z,77.79
2023-01-17T17:32:32.536Z,78.05
2023-01-17T17:34:59.381Z,77.80
2023-01-17T17:37:28.958Z,77.40
2023-01-17T17:39:56.601Z,77.29
2023-01-17T17:42:23.255Z,77.90
2023-01-17T17:44:50.108Z,78.45
2023-01-17T17:47:17.879Z,78.58
2023-01-17T17:49:44.509Z,78.30
2023-01-17T17:52:11.121Z,78.66
2023-01-17T17:54:37.813Z,78.78
2023-01-17T17:57:04.600Z,78.98
2023-01-17T17:59:31.205Z,79.21
2023-01-17T18:01:59.628Z,79.30
2023-01-17T18:04:26.898Z,79.25
2023-01-17T18:06:58.015Z,79.28
2023-01-17T18:09:24.587Z,79.67
2023-01-17T18:11:51.211Z,80.03
2023-01-17T18:14:20.953Z,80.74
2023-01-17T18:16:48.353Z,80.98
2023-01-17T18:19:18.318Z,81.22
2023-01-17T18:21:45.063Z,81.02
2023-01-17T18:24:16.528Z,80.59
2023-01-17T18:26:54.501Z,80.47
2023-01-17T18:29:22.632Z,79.95
2023-01-17T18:31:50.739Z,80.03
2023-01-17T18:34:21.286Z,80.76
2023-01-17T18:36:47.788Z,81.04
2023-01-17T18:39:24.470Z,81.94
2023-01-17T18:41:51.720Z,81.74
2023-01-17T18:44:21.821Z,81.73
2023-01-17T18:46:50.149Z,81.93
2023-01-17T18:49:19.162Z,81.77
2023-01-17T18:51:50.967Z,81.77
2023-01-17T18:54:19.162Z,82.05
2023-01-17T18:56:46.106Z,82.45
2023-01-17T18:59:13.890Z,80.75
2023-01-17T19:01:43.798Z,80.58
2023-01-17T19:04:12.245Z,79.87
2023-01-17T19:06:41.572Z,81.04
2023-01-17T19:09:09.115Z,81.06
2023-01-17T19:11:36.645Z,80.75
2023-01-17T19:14:04.073Z,81.20
2023-01-17T19:16:34.608Z,81.86
2023-01-17T19:19:04.436Z,81.84
2023-01-17T19:21:31.868Z,82.98
2023-01-17T19:23:58.816Z,82.54
2023-01-17T19:26:27.385Z,81.91
2023-01-17T19:28:56.209Z,81.81
2023-01-17T19:31:25.693Z,81.43
2023-01-17T19:33:54.295Z,81.38
2023-01-17T19:36:25.787Z,81.46
2023-01-17T19:39:04.120Z,81.42
2023-01-17T19:41:32.005Z,81.70
2023-01-17T19:44:07.157Z,80.48
2023-01-17T19:46:34.551Z,79.83
2023-01-17T19:49:01.454Z,80.52
2023-01-17T19:51:28.311Z,80.02
2023-01-17T19:53:55.278Z,80.16
2023-01-17T19:56:24.585Z,79.62
2023-01-17T19:58:52.190Z,80.99
2023-01-17T20:01:22.078Z,81.47
2023-01-17T20:03:49.574Z,81.38
2023-01-17T20:06:19.239Z,80.77
2023-01-17T20:08:45.993Z,80.77
2023-01-17T20:11:15.251Z,81.21
2023-01-17T20:13:42.296Z,81.62
2023-01-17T20:16:11.282Z,82.67
2023-01-17T20:18:37.852Z,81.31
2023-01-17T20:21:05.260Z,82.00
2023-01-17T20:23:40.217Z,83.64
2023-01-17T20:26:06.779Z,84.07
2023-01-17T20:28:34.886Z,85.62
2023-01-17T20:31:09.902Z,86.84
2023-01-17T20:33:36.491Z,86.99
2023-01-17T20:36:10.655Z,88.88
2023-01-17T20:38:44.527Z,89.29
2023-01-17T20:41:20.811Z,90.00
2023-01-17T20:43:52.825Z,91.01
2023-01-17T20:46:21.560Z,91.54
2023-01-17T20:48:50.596Z,92.14
2023-01-17T20:51:18.396Z,92.66
2023-01-17T20:53:46.493Z,94.70
2023-01-17T20:56:15.953Z,96.91
2023-01-17T20:58:42.797Z,96.29
2023-01-17T21:01:12.017Z,99.17
2023-01-17T21:03:39.678Z,99.87
2023-01-17T21:06:08.712Z,100.00
2023-01-17T21:08:37.404Z,99.97
2023-01-17T21:11:05.673Z,98.61
2023-01-17T21:13:32.475Z,98.47
2023-01-17T21:15:59.616Z,97.91
2023-01-17T21:18:28.180Z,98.11
2023-01-17T21:20:54.768Z,98.29
2023-01-17T21:23:23.435Z,97.12
2023-01-17T21:25:55.551Z,98.71
2023-01-17T21:28:23.714Z,98.81
2023-01-17T21:30:50.495Z,99.40
2023-01-17T21:33:18.215Z,100.00
2023-01-17T21:35:44.823Z,100.00
2023-01-17T21:38:12.199Z,100.00
2023-01-17T21:40:38.956Z,100.00
2023-01-17T21:43:05.559Z,100.00
2023-01-17T21:45:35.718Z,100.00
2023-01-17T21:48:02.210Z,100.00
2023-01-17T21:50:33.338Z,100.00
2023-01-17T21:53:00.294Z,100.00
2023-01-17T21:55:46.006Z,99.18
2023-01-17T21:58:36.031Z,99.93
2023-01-17T22:01:18.939Z,99.46
2023-01-17T22:03:49.199Z,99.03
2023-01-17T22:06:16.147Z,98.04
2023-01-17T22:08:42.935Z,98.80
2023-01-17T22:11:12.814Z,98.37
2023-01-17T22:13:40.905Z,98.25
2023-01-17T22:16:10.735Z,97.42
2023-01-17T22:18:39.305Z,97.46
2023-01-17T22:21:08.411Z,97.22
2023-01-17T22:23:35.180Z,97.28
2023-01-17T22:26:09.838Z,96.60
2023-01-17T22:28:37.134Z,96.45
2023-01-17T22:31:23.382Z,96.49
2023-01-17T22:33:58.505Z,96.60
2023-01-17T22:36:25.888Z,96.85
2023-01-17T22:38:52.759Z,97.23
2023-01-17T22:41:24.952Z,96.95
2023-01-17T22:43:53.882Z,97.03
2023-01-17T22:46:26.795Z,97.19
2023-01-17T22:48:54.996Z,96.82
2023-01-17T22:51:23.064Z,97.09
2023-01-17T22:53:51.991Z,97.23
2023-01-17T22:56:21.528Z,97.01
2023-01-17T22:58:49.040Z,97.28
2023-01-17T23:17:53.163Z,100.00
2023-01-17T23:20:19.851Z,100.00
2023-01-17T23:22:46.505Z,100.00
2023-01-17T23:25:13.460Z,100.00
2023-01-17T23:28:00.168Z,100.00
2023-01-17T23:30:34.444Z,100.00
2023-01-17T23:33:09.695Z,100.00
2023-01-17T23:35:41.692Z,100.00
2023-01-17T23:38:33.801Z,100.00
2023-01-17T23:41:24.551Z,100.00
2023-01-17T23:43:53.382Z,100.00
2023-01-17T23:46:20.477Z,100.00
2023-01-17T23:48:47.705Z,100.00
2023-01-17T23:51:14.401Z,100.00
2023-01-17T23:53:41.514Z,100.00
2023-01-17T23:56:17.048Z,100.00
2023-01-17T23:58:43.781Z,100.00
